Time;durP1;ratioP1;P1;durP2;ratioP2;P2;SDS_P1;SDS_P2;PMS_P1;PMS_P2;Temp;Humidity;BMP_temperature;BMP_pressure;BME280_temperature;BME280_humidity;BME280_pressure;Samples;Min_cycle;Max_cycle;Signal;HPM_P1;HPM_P2
2023/05/17 00:00:16;;;;;;;5.30;1.63;;;9.50;99.90;;;;;;5097372;28;20075;-52
2023/05/17 00:02:41;;;;;;;5.90;1.02;;;9.60;99.90;;;;;;5097086;28;20506;-49
2023/05/17 00:05:07;;;;;;;6.70;0.97;;;9.60;99.90;;;;;;5097074;28;20075;-52
2023/05/17 00:07:33;;;;;;;6.72;0.88;;;9.60;99.90;;;;;;5097190;28;20044;-50
2023/05/17 00:09:59;;;;;;;6.03;0.87;;;9.60;99.90;;;;;;5097178;28;20137;-48
2023/05/17 00:12:25;;;;;;;7.40;1.00;;;9.60;99.90;;;;;;5097199;28;20083;-49
2023/05/17 00:14:52;;;;;;;8.32;0.88;;;9.60;99.90;;;;;;5096948;28;20040;-49
2023/05/17 00:17:18;;;;;;;2.42;0.70;;;9.50;99.90;;;;;;5096885;28;20083;-52
2023/05/17 00:19:43;;;;;;;6.33;1.67;;;9.50;99.90;;;;;;5096794;28;20102;-49
2023/05/17 00:22:09;;;;;;;4.83;0.77;;;9.50;99.90;;;;;;5097224;28;20132;-51
2023/05/17 00:24:35;;;;;;;4.43;0.77;;;9.60;99.90;;;;;;5097142;28;20084;-49
2023/05/17 00:27:00;;;;;;;6.97;0.97;;;9.60;99.90;;;;;;5095934;28;20050;-50
2023/05/17 00:29:26;;;;;;;3.73;1.10;;;9.50;99.90;;;;;;5095649;28;20047;-49
2023/05/17 00:31:52;;;;;;;5.43;0.97;;;9.60;99.90;;;;;;5096601;28;20471;-49
2023/05/17 00:34:17;;;;;;;6.90;1.33;;;9.60;99.90;;;;;;5096449;28;20094;-49
2023/05/17 00:36:43;;;;;;;5.20;0.77;;;9.60;99.90;;;;;;5096681;28;20117;-49
2023/05/17 00:39:09;;;;;;;3.37;0.50;;;9.60;99.90;;;;;;5096670;28;20084;-51
2023/05/17 00:41:34;;;;;;;7.17;0.83;;;9.60;99.90;;;;;;5096418;28;20094;-50
2023/05/17 00:44:00;;;;;;;6.03;0.90;;;9.60;99.90;;;;;;5096469;28;20069;-52
2023/05/17 00:46:26;;;;;;;3.40;0.83;;;9.60;99.90;;;;;;5096380;28;20486;-52
2023/05/17 00:48:52;;;;;;;5.93;1.00;;;9.60;99.90;;;;;;5096141;28;20048;-50
2023/05/17 00:51:19;;;;;;;4.10;0.93;;;9.60;99.90;;;;;;5096302;28;20391;-53
2023/05/17 00:53:45;;;;;;;3.95;1.23;;;9.50;99.90;;;;;;5095202;28;20048;-52
2023/05/17 00:56:12;;;;;;;4.65;0.68;;;9.60;99.90;;;;;;5096339;28;20048;-51
2023/05/17 00:58:39;;;;;;;7.28;1.27;;;9.50;99.90;;;;;;5096167;28;20452;-52
2023/05/17 01:01:05;;;;;;;4.05;0.65;;;9.60;99.90;;;;;;5095880;28;20044;-52
2023/05/17 01:03:31;;;;;;;4.97;0.75;;;9.50;99.90;;;;;;5095918;28;20044;-52
2023/05/17 01:05:57;;;;;;;4.10;0.60;;;9.60;99.90;;;;;;5096093;28;20552;-51
2023/05/17 01:08:22;;;;;;;3.13;0.70;;;9.60;99.90;;;;;;5096050;28;20602;-51
2023/05/17 01:11:00;;;;;;;4.63;1.43;;;9.60;99.90;;;;;;5096115;28;20419;-51
2023/05/17 01:13:35;;;;;;;;;;;9.60;99.90;;;;;;5096269;28;20048;-52
2023/05/17 01:16:32;;;;;;;3.15;0.68;;;9.60;99.90;;;;;;5095707;28;19926;-52
2023/05/17 01:19:09;;;;;;;5.10;1.30;;;9.60;99.90;;;;;;5073770;28;20085;-52
2023/05/17 01:21:52;;;;;;;;;;;9.50;99.90;;;;;;5096099;28;20052;-52
2023/05/17 01:24:27;;;;;;;7.53;0.93;;;9.50;99.90;;;;;;5094253;28;19920;-50
2023/05/17 01:26:54;;;;;;;4.93;0.73;;;9.50;99.90;;;;;;5095725;28;20101;-49
2023/05/17 01:29:26;;;;;;;6.43;1.63;;;9.50;99.90;;;;;;5095631;28;20105;-48
2023/05/17 01:31:52;;;;;;;7.05;0.85;;;9.60;99.90;;;;;;5095385;28;20511;-49
2023/05/17 01:34:28;;;;;;;2.33;0.95;;;9.60;99.90;;;;;;5095430;28;20131;-49
2023/05/17 01:36:54;;;;;;;5.10;0.60;;;9.60;99.90;;;;;;5095332;28;20511;-50
2023/05/17 01:39:21;;;;;;;5.28;1.08;;;9.60;99.90;;;;;;5095443;28;20048;-49
2023/05/17 01:41:52;;;;;;;3.72;0.80;;;9.60;99.90;;;;;;5095330;28;20048;-49
2023/05/17 01:44:39;;;;;;;4.20;0.47;;;9.60;99.90;;;;;;5095576;28;20036;-48
2023/05/17 01:47:13;;;;;;;3.97;0.97;;;9.60;99.90;;;;;;5095210;28;20132;-49
2023/05/17 01:49:44;;;;;;;2.78;1.08;;;9.50;99.90;;;;;;5095904;28;20329;-49
2023/05/17 01:52:24;;;;;;;1.67;0.35;;;9.60;99.90;;;;;;5095251;28;20501;-53
2023/05/17 01:55:07;;;;;;;4.47;0.60;;;9.50;99.90;;;;;;5095048;28;20036;-48
2023/05/17 01:57:38;;;;;;;3.10;0.40;;;9.50;99.90;;;;;;5094914;28;20054;-49
2023/05/17 02:00:08;;;;;;;3.38;0.60;;;9.50;99.90;;;;;;5094875;28;20428;-49
2023/05/17 02:02:34;;;;;;;3.17;0.30;;;9.40;99.90;;;;;;5095040;28;20069;-50
2023/05/17 02:05:00;;;;;;;4.68;0.85;;;9.40;99.90;;;;;;5094945;28;20119;-49
2023/05/17 02:07:25;;;;;;;3.37;0.50;;;9.40;99.90;;;;;;5094819;28;20083;-49
2023/05/17 02:09:51;;;;;;;4.27;0.77;;;9.40;99.90;;;;;;5094889;28;20044;-49
2023/05/17 02:12:17;;;;;;;6.07;0.63;;;9.30;99.90;;;;;;5094124;28;20398;-49
2023/05/17 02:14:42;;;;;;;2.93;1.00;;;9.40;99.90;;;;;;5094685;28;20126;-48
2023/05/17 02:17:08;;;;;;;1.30;0.20;;;9.30;99.90;;;;;;5094933;28;20048;-49
2023/05/17 02:19:34;;;;;;;1.80;0.43;;;9.30;99.90;;;;;;5094728;28;20052;-49
2023/05/17 02:21:59;;;;;;;3.63;1.17;;;9.30;99.90;;;;;;5094611;28;20044;-48
2023/05/17 02:24:25;;;;;;;4.23;0.57;;;9.20;99.90;;;;;;5093388;28;20040;-49
2023/05/17 02:26:51;;;;;;;3.17;0.60;;;9.20;99.90;;;;;;5094427;28;20048;-49
2023/05/17 02:29:17;;;;;;;3.90;1.53;;;9.10;99.90;;;;;;5094528;28;20044;-48
2023/05/17 02:31:42;;;;;;;6.83;0.50;;;9.10;99.90;;;;;;5094387;28;20506;-49
2023/05/17 02:34:08;;;;;;;4.70;0.90;;;9.00;99.90;;;;;;5094231;28;20567;-52
2023/05/17 02:36:34;;;;;;;3.80;1.10;;;9.00;99.90;;;;;;5094577;28;20083;-49
2023/05/17 02:39:00;;;;;;;2.37;0.50;;;8.90;99.90;;;;;;5094079;28;20075;-50
2023/05/17 02:41:25;;;;;;;5.07;0.73;;;8.90;99.90;;;;;;5094108;28;20126;-49
2023/05/17 02:43:51;;;;;;;4.77;0.80;;;8.90;99.90;;;;;;5093315;28;20460;-50
2023/05/17 02:46:17;;;;;;;2.83;0.57;;;8.90;99.90;;;;;;5094038;28;20044;-49
2023/05/17 02:48:42;;;;;;;4.37;0.70;;;8.80;99.90;;;;;;5094055;28;20084;-50
2023/05/17 02:51:08;;;;;;;4.73;0.73;;;8.80;99.90;;;;;;5094066;28;20050;-48
2023/05/17 02:53:34;;;;;;;5.47;0.60;;;8.80;99.90;;;;;;5094017;28;20048;-49
2023/05/17 02:55:59;;;;;;;4.90;1.37;;;8.80;99.90;;;;;;5094033;28;20040;-49
2023/05/17 02:58:25;;;;;;;4.83;0.60;;;8.80;99.90;;;;;;5094025;28;20052;-48
2023/05/17 03:00:51;;;;;;;2.43;0.60;;;8.80;99.90;;;;;;5093984;28;20117;-48
2023/05/17 03:03:17;;;;;;;1.47;0.40;;;8.80;99.90;;;;;;5094013;28;20032;-49
2023/05/17 03:05:43;;;;;;;3.00;0.80;;;8.80;99.90;;;;;;5094105;28;20047;-48
2023/05/17 03:08:08;;;;;;;4.90;0.60;;;8.80;99.90;;;;;;5093888;28;20039;-49
2023/05/17 03:10:34;;;;;;;3.22;0.43;;;8.80;99.90;;;;;;5093625;28;20090;-48
2023/05/17 03:13:00;;;;;;;4.97;1.03;;;8.80;99.90;;;;;;5094191;28;20051;-50
2023/05/17 03:15:28;;;;;;;1.63;0.30;;;8.80;99.90;;;;;;5093791;28;20052;-49
2023/05/17 03:17:55;;;;;;;5.13;0.70;;;8.90;99.90;;;;;;5093758;28;20071;-49
2023/05/17 03:20:21;;;;;;;4.20;0.50;;;8.90;99.90;;;;;;5093748;28;20479;-49
2023/05/17 03:22:47;;;;;;;3.53;0.60;;;8.90;99.90;;;;;;5093453;28;20480;-50
2023/05/17 03:25:13;;;;;;;5.10;0.43;;;8.90;99.90;;;;;;5095235;28;20047;-48
2023/05/17 03:27:38;;;;;;;4.77;0.70;;;8.90;99.90;;;;;;5098555;28;20044;-50
2023/05/17 03:30:05;;;;;;;1.47;0.30;;;9.00;99.90;;;;;;5098062;28;20499;-48
2023/05/17 03:32:30;;;;;;;3.22;0.50;;;9.00;99.90;;;;;;5098031;28;20050;-50
2023/05/17 03:34:56;;;;;;;3.40;1.57;;;9.00;99.90;;;;;;5097797;28;20040;-50
2023/05/17 03:37:22;;;;;;;3.27;0.40;;;9.00;99.90;;;;;;5096255;28;20093;-48
2023/05/17 03:39:48;;;;;;;3.70;0.70;;;9.00;99.90;;;;;;5097641;28;20097;-49
2023/05/17 03:42:13;;;;;;;0.43;0.30;;;9.00;99.90;;;;;;5097715;28;20428;-50
2023/05/17 03:44:40;;;;;;;4.10;0.40;;;8.90;99.90;;;;;;5097654;28;20407;-54
2023/05/17 03:47:05;;;;;;;2.28;0.60;;;9.00;99.90;;;;;;5097630;28;20112;-51
2023/05/17 03:49:31;;;;;;;1.80;0.60;;;8.90;99.90;;;;;;5097454;28;20062;-50
2023/05/17 03:51:57;;;;;;;3.03;0.47;;;8.90;99.90;;;;;;5097534;28;20102;-49
2023/05/17 03:54:22;;;;;;;3.00;0.70;;;8.90;99.90;;;;;;5097207;28;20084;-51
2023/05/17 03:56:49;;;;;;;2.37;0.40;;;8.90;99.90;;;;;;5097481;28;20055;-52
2023/05/17 03:59:15;;;;;;;5.15;0.57;;;8.90;99.90;;;;;;5097627;28;20101;-51
2023/05/17 04:01:41;;;;;;;3.63;0.60;;;8.90;99.90;;;;;;5097279;28;20044;-52
2023/05/17 04:04:07;;;;;;;2.97;0.40;;;8.90;99.90;;;;;;5097173;28;20482;-52
2023/05/17 04:06:33;;;;;;;2.20;0.50;;;8.90;99.90;;;;;;5097255;28;20131;-52
2023/05/17 04:08:59;;;;;;;2.63;0.37;;;8.90;99.90;;;;;;5097141;28;20047;-52
2023/05/17 04:11:26;;;;;;;4.97;0.80;;;8.90;99.90;;;;;;5097030;28;20387;-52
2023/05/17 04:13:52;;;;;;;1.35;0.35;;;8.90;99.90;;;;;;5097114;28;20044;-52
2023/05/17 04:16:19;;;;;;;3.25;0.70;;;8.90;99.90;;;;;;5097319;28;20133;-51
2023/05/17 04:18:45;;;;;;;2.20;0.40;;;8.90;99.90;;;;;;5097078;28;20513;-51
2023/05/17 04:21:11;;;;;;;4.50;0.50;;;8.90;99.90;;;;;;5096776;28;20122;-49
2023/05/17 04:23:37;;;;;;;3.97;0.47;;;8.90;99.90;;;;;;5096697;28;20042;-49
2023/05/17 04:26:03;;;;;;;3.30;0.30;;;8.90;99.90;;;;;;5097316;28;20044;-49
2023/05/17 04:28:30;;;;;;;2.65;0.73;;;8.80;99.90;;;;;;5096852;28;20036;-50
2023/05/17 04:30:55;;;;;;;4.78;0.82;;;8.90;99.90;;;;;;5096833;28;20044;-50
2023/05/17 04:33:23;;;;;;;2.97;0.40;;;8.80;99.90;;;;;;5096849;28;20156;-48
2023/05/17 04:35:49;;;;;;;2.38;0.30;;;8.80;99.90;;;;;;5095928;28;20044;-51
2023/05/17 04:38:15;;;;;;;4.05;0.30;;;8.80;99.90;;;;;;5096502;28;20095;-52
2023/05/17 04:40:41;;;;;;;4.07;0.45;;;8.80;99.90;;;;;;5097088;28;20094;-49
2023/05/17 04:43:07;;;;;;;4.70;0.77;;;8.80;99.90;;;;;;5096543;28;20039;-50
2023/05/17 04:45:33;;;;;;;2.72;0.60;;;8.80;99.90;;;;;;5096518;28;20087;-51
2023/05/17 04:47:59;;;;;;;2.65;0.50;;;8.80;99.90;;;;;;5096460;28;20051;-50
2023/05/17 04:50:25;;;;;;;1.80;0.40;;;8.80;99.90;;;;;;5096427;28;20062;-51
2023/05/17 04:52:51;;;;;;;2.20;0.40;;;8.80;99.90;;;;;;5095093;28;20467;-52
2023/05/17 04:55:17;;;;;;;4.30;0.67;;;8.80;99.90;;;;;;5096705;28;20052;-49
2023/05/17 04:57:42;;;;;;;5.83;0.87;;;8.90;99.90;;;;;;5096586;28;20048;-51
2023/05/17 05:00:09;;;;;;;2.33;0.40;;;8.90;99.90;;;;;;5096282;28;20047;-49
2023/05/17 05:02:35;;;;;;;2.35;0.93;;;8.90;99.90;;;;;;5096185;28;20753;-49
2023/05/17 05:05:03;;;;;;;4.10;0.57;;;8.90;99.90;;;;;;5096160;28;20044;-50
2023/05/17 05:07:29;;;;;;;3.53;0.30;;;9.00;99.90;;;;;;5095945;28;20051;-49
2023/05/17 05:09:55;;;;;;;1.80;0.20;;;9.00;99.90;;;;;;5095878;28;20601;-49
2023/05/17 05:12:21;;;;;;;3.97;0.70;;;9.00;99.90;;;;;;5096047;28;20083;-49
2023/05/17 05:14:47;;;;;;;3.27;0.93;;;9.00;99.90;;;;;;5094714;28;20063;-48
2023/05/17 05:17:12;;;;;;;2.63;0.50;;;9.00;99.90;;;;;;5095841;28;20127;-48
2023/05/17 05:19:38;;;;;;;5.87;0.67;;;9.00;99.90;;;;;;5095868;28;20055;-48
2023/05/17 05:22:04;;;;;;;4.33;0.40;;;9.00;99.90;;;;;;5095596;28;20055;-49
2023/05/17 05:24:29;;;;;;;5.87;0.60;;;9.10;99.90;;;;;;5128983;27;20084;-48
2023/05/17 05:26:55;;;;;;;3.80;0.57;;;9.10;99.90;;;;;;5095749;28;20392;-49
2023/05/17 05:29:21;;;;;;;6.27;0.50;;;9.10;99.90;;;;;;5095612;28;20088;-50
2023/05/17 05:31:47;;;;;;;3.80;0.40;;;9.10;99.90;;;;;;5094609;28;20043;-50
2023/05/17 05:34:12;;;;;;;5.97;0.63;;;9.10;99.90;;;;;;5095539;28;20040;-50
2023/05/17 05:36:38;;;;;;;2.83;0.30;;;9.10;99.90;;;;;;5095394;28;20060;-49
2023/05/17 05:39:04;;;;;;;3.23;0.50;;;9.10;99.90;;;;;;5095416;28;20059;-49
2023/05/17 05:41:30;;;;;;;6.47;0.60;;;9.10;99.90;;;;;;5095432;28;20048;-49
2023/05/17 05:43:56;;;;;;;5.47;0.90;;;9.20;99.90;;;;;;5095260;28;20063;-49
2023/05/17 05:46:21;;;;;;;4.43;0.83;;;9.20;99.90;;;;;;5095298;28;20075;-49
2023/05/17 05:48:47;;;;;;;3.70;0.73;;;9.30;99.90;;;;;;5094443;28;20047;-49
2023/05/17 05:51:13;;;;;;;3.77;0.53;;;9.40;99.90;;;;;;5093991;28;20048;-49
2023/05/17 05:53:38;;;;;;;3.30;0.80;;;9.50;99.90;;;;;;5095104;28;20047;-50
2023/05/17 05:56:04;;;;;;;6.07;0.50;;;9.60;99.90;;;;;;5095092;28;20079;-49
2023/05/17 05:58:31;;;;;;;3.60;0.43;;;9.60;99.90;;;;;;5094515;28;20139;-50
2023/05/17 06:00:57;;;;;;;4.63;0.63;;;9.60;99.90;;;;;;5094888;28;20056;-50
2023/05/17 06:03:23;;;;;;;2.97;0.83;;;9.60;99.90;;;;;;5094896;28;20043;-48
2023/05/17 06:05:49;;;;;;;3.67;0.55;;;9.50;99.90;;;;;;5094872;28;20131;-49
2023/05/17 06:08:15;;;;;;;4.43;0.53;;;9.50;99.90;;;;;;5093938;28;20091;-49
2023/05/17 06:10:40;;;;;;;2.47;0.67;;;9.50;99.90;;;;;;5095161;28;20803;-49
2023/05/17 06:13:06;;;;;;;5.27;1.13;;;9.50;99.90;;;;;;5094684;28;20044;-51
2023/05/17 06:15:32;;;;;;;5.97;1.00;;;9.50;99.90;;;;;;5094698;28;20044;-49
2023/05/17 06:17:58;;;;;;;5.27;0.70;;;9.50;99.90;;;;;;5094674;28;20079;-49
2023/05/17 06:20:23;;;;;;;3.87;0.80;;;9.50;99.90;;;;;;5094459;28;20047;-47
2023/05/17 06:22:49;;;;;;;4.07;0.80;;;9.40;99.90;;;;;;5094417;28;20048;-47
2023/05/17 06:25:15;;;;;;;6.20;0.90;;;9.40;99.90;;;;;;5094678;28;20044;-48
2023/05/17 06:27:41;;;;;;;5.90;0.93;;;9.40;99.90;;;;;;5094298;28;20070;-48
2023/05/17 06:30:07;;;;;;;6.40;0.60;;;9.40;99.90;;;;;;5094309;28;20101;-49
2023/05/17 06:32:33;;;;;;;3.03;0.52;;;9.40;99.90;;;;;;5094357;28;20510;-48
2023/05/17 06:35:00;;;;;;;3.25;0.50;;;9.40;99.90;;;;;;5094229;28;20044;-47
2023/05/17 06:37:26;;;;;;;4.65;1.05;;;9.40;99.90;;;;;;5094642;28;20056;-50
2023/05/17 06:39:52;;;;;;;3.93;0.73;;;9.40;99.90;;;;;;5094601;28;20388;-49
2023/05/17 06:42:18;;;;;;;3.08;0.63;;;9.40;99.90;;;;;;5094568;28;20043;-47
2023/05/17 06:44:44;;;;;;;2.00;0.50;;;9.50;99.90;;;;;;5094086;28;20054;-48
2023/05/17 06:47:09;;;;;;;3.67;0.83;;;9.60;99.90;;;;;;5094177;28;20093;-50
2023/05/17 06:49:36;;;;;;;3.57;0.93;;;9.70;99.90;;;;;;5093946;28;20048;-46
2023/05/17 06:52:04;;;;;;;5.85;0.60;;;9.90;99.90;;;;;;5094157;28;20048;-48
2023/05/17 06:54:30;;;;;;;5.70;0.68;;;10.10;99.90;;;;;;5094072;28;20048;-49
2023/05/17 06:57:03;;;;;;;3.40;0.60;;;10.20;99.90;;;;;;5094123;28;20399;-46
2023/05/17 06:59:29;;;;;;;3.75;0.60;;;10.20;99.90;;;;;;5093697;28;20052;-48
2023/05/17 07:01:55;;;;;;;3.05;0.43;;;10.30;99.90;;;;;;5094023;28;20048;-49
2023/05/17 07:04:21;;;;;;;6.78;0.70;;;10.20;99.90;;;;;;5093864;28;20455;-48
2023/05/17 07:06:47;;;;;;;3.27;0.80;;;10.10;99.90;;;;;;5094065;28;20127;-49
2023/05/17 07:09:12;;;;;;;3.47;0.50;;;10.10;99.90;;;;;;5093902;28;20278;-47
2023/05/17 07:11:38;;;;;;;4.53;0.60;;;10.30;99.90;;;;;;5093792;28;20052;-48
2023/05/17 07:14:04;;;;;;;1.93;0.50;;;10.30;99.90;;;;;;5093585;28;20043;-48
2023/05/17 07:16:29;;;;;;;2.73;0.50;;;10.30;99.90;;;;;;5093796;28;20039;-49
2023/05/17 07:18:55;;;;;;;2.70;0.40;;;10.20;99.90;;;;;;5093755;28;20093;-47
2023/05/17 07:21:22;;;;;;;5.53;0.70;;;10.20;99.90;;;;;;5093851;28;20101;-51
2023/05/17 07:23:49;;;;;;;2.60;0.50;;;10.20;99.90;;;;;;5093728;28;20047;-49
2023/05/17 07:26:17;;;;;;;4.45;0.60;;;10.10;99.90;;;;;;5093493;28;20483;-48
2023/05/17 07:28:43;;;;;;;4.80;0.40;;;10.10;99.90;;;;;;5093562;28;20048;-49
2023/05/17 07:31:08;;;;;;;6.47;1.07;;;10.10;99.90;;;;;;5093470;28;20101;-48
2023/05/17 07:33:34;;;;;;;4.07;0.50;;;10.10;99.90;;;;;;5093820;28;20120;-49
2023/05/17 07:36:00;;;;;;;1.37;0.30;;;10.10;99.90;;;;;;5092684;28;20060;-51
2023/05/17 07:38:26;;;;;;;4.10;1.17;;;10.10;99.90;;;;;;5092490;28;20483;-50
2023/05/17 07:40:51;;;;;;;5.53;0.73;;;10.10;99.90;;;;;;5093668;28;20051;-48
2023/05/17 07:43:17;;;;;;;1.70;0.40;;;10.10;99.90;;;;;;5093747;28;20048;-48
2023/05/17 07:45:43;;;;;;;4.23;0.43;;;10.20;99.90;;;;;;5092313;28;20494;-49
2023/05/17 07:48:08;;;;;;;7.68;0.75;;;10.20;99.90;;;;;;5093488;28;20063;-47
2023/05/17 07:50:34;;;;;;;7.00;0.90;;;10.20;99.90;;;;;;5093436;28;20102;-48
2023/05/17 07:53:00;;;;;;;3.08;0.73;;;10.20;99.90;;;;;;5093518;28;20048;-49
2023/05/17 07:55:26;;;;;;;2.40;0.70;;;10.20;99.90;;;;;;5092263;28;20044;-49
2023/05/17 07:57:52;;;;;;;8.97;1.40;;;10.10;99.90;;;;;;5092146;28;20278;-48
2023/05/17 08:00:18;;;;;;;3.40;0.80;;;10.10;99.90;;;;;;5093309;28;20048;-49
2023/05/17 08:02:44;;;;;;;3.28;0.65;;;10.10;99.90;;;;;;5093132;28;20048;-49
2023/05/17 08:05:10;;;;;;;4.63;0.53;;;10.10;99.90;;;;;;5093351;28;20040;-47
2023/05/17 08:07:35;;;;;;;2.93;0.60;;;10.10;99.90;;;;;;5093332;28;20286;-48
2023/05/17 08:10:01;;;;;;;4.77;0.60;;;10.10;99.90;;;;;;5091945;28;20051;-53
2023/05/17 08:12:27;;;;;;;3.17;0.60;;;10.20;99.90;;;;;;5096676;28;20044;-47
2023/05/17 08:14:52;;;;;;;6.50;0.60;;;10.30;99.90;;;;;;5095730;28;20387;-48
2023/05/17 08:17:18;;;;;;;2.80;0.70;;;10.40;99.90;;;;;;5096791;28;20065;-49
2023/05/17 08:19:44;;;;;;;2.60;0.50;;;10.40;99.90;;;;;;5096986;28;20090;-48
2023/05/17 08:22:10;;;;;;;2.50;0.37;;;10.40;99.90;;;;;;5096874;28;20052;-49
2023/05/17 08:24:35;;;;;;;1.98;0.40;;;10.50;99.90;;;;;;5096865;28;20048;-49
2023/05/17 08:27:02;;;;;;;2.50;0.50;;;10.50;99.90;;;;;;5096944;28;20502;-50
2023/05/17 08:29:27;;;;;;;3.00;0.68;;;10.50;99.90;;;;;;5096724;28;20140;-47
2023/05/17 08:31:54;;;;;;;3.33;0.40;;;10.50;99.90;;;;;;5096553;28;20474;-50
2023/05/17 08:34:19;;;;;;;2.45;1.00;;;10.50;99.90;;;;;;5096413;28;20418;-50
2023/05/17 08:36:46;;;;;;;4.80;0.63;;;10.50;99.90;;;;;;5096753;28;20056;-51
2023/05/17 08:39:12;;;;;;;1.10;0.40;;;10.50;99.90;;;;;;5096729;28;20048;-53
2023/05/17 08:41:38;;;;;;;3.00;0.70;;;10.40;99.90;;;;;;5096365;28;20051;-48
2023/05/17 08:44:05;;;;;;;1.27;0.40;;;10.40;99.90;;;;;;5096419;28;20075;-49
2023/05/17 08:46:35;;;;;;;;;;;10.40;99.90;;;;;;5097070;28;20056;-54
2023/05/17 08:49:04;;;;;;;1.55;0.50;;;10.40;99.90;;;;;;5096576;28;19935;-52
2023/05/17 08:51:31;;;;;;;3.22;0.65;;;10.30;99.90;;;;;;5095513;28;20050;-53
2023/05/17 08:53:57;;;;;;;3.55;0.60;;;10.30;99.90;;;;;;5096270;28;20501;-49
2023/05/17 08:56:25;;;;;;;6.88;1.02;;;10.30;99.90;;;;;;5096352;28;20483;-51
2023/05/17 08:58:55;;;;;;;4.43;0.88;;;10.30;99.90;;;;;;5096023;28;20104;-49
2023/05/17 09:01:22;;;;;;;7.32;0.68;;;10.30;99.90;;;;;;5096471;28;20093;-47
2023/05/17 09:03:48;;;;;;;3.15;0.60;;;10.30;99.90;;;;;;5096139;28;20468;-50
2023/05/17 09:06:20;;;;;;;4.88;0.68;;;10.30;99.90;;;;;;5096136;28;20055;-52
2023/05/17 09:08:46;;;;;;;3.05;0.60;;;10.30;99.90;;;;;;5095940;28;20119;-50
2023/05/17 09:11:22;;;;;;;3.83;0.52;;;10.30;99.90;;;;;;5095920;28;20051;-49
2023/05/17 09:13:48;;;;;;;1.08;0.20;;;10.40;99.90;;;;;;5096025;28;20105;-50
2023/05/17 09:16:15;;;;;;;6.20;1.43;;;10.40;99.90;;;;;;5096014;28;20511;-50
2023/05/17 09:18:40;;;;;;;2.95;0.43;;;10.40;99.90;;;;;;5095880;28;20285;-48
2023/05/17 09:21:08;;;;;;;2.30;0.50;;;10.40;99.90;;;;;;5095806;28;20040;-49
2023/05/17 09:23:37;;;;;;;2.05;0.40;;;10.50;99.90;;;;;;5094449;28;20051;-48
2023/05/17 09:26:05;;;;;;;1.45;0.38;;;10.50;99.90;;;;;;5095534;28;20052;-49
2023/05/17 09:28:39;;;;;;;3.90;0.50;;;10.50;99.90;;;;;;5095739;28;20043;-48
2023/05/17 09:31:09;;;;;;;2.88;0.47;;;10.50;99.90;;;;;;5095647;28;20046;-50
2023/05/17 09:33:45;;;;;;;4.25;0.40;;;10.60;99.90;;;;;;5095448;28;20457;-51
2023/05/17 09:36:19;;;;;;;3.97;0.50;;;10.60;99.90;;;;;;5094474;28;20052;-52
2023/05/17 09:39:00;;;;;;;4.38;0.80;;;10.70;99.90;;;;;;5095858;28;20052;-49
2023/05/17 09:41:40;;;;;;;4.15;0.55;;;10.80;99.90;;;;;;5095509;28;20123;-49
2023/05/17 09:44:08;;;;;;;3.20;0.32;;;10.80;99.90;;;;;;5095498;28;20044;-51
2023/05/17 09:46:40;;;;;;;3.72;0.80;;;10.90;99.90;;;;;;5095294;28;20060;-52
2023/05/17 09:49:06;;;;;;;4.88;0.70;;;11.00;99.90;;;;;;5095337;28;20093;-49
2023/05/17 09:51:35;;;;;;;3.25;0.60;;;11.00;99.90;;;;;;5095303;28;20040;-53
2023/05/17 09:54:01;;;;;;;2.95;0.40;;;11.00;99.90;;;;;;5095141;28;20040;-53
2023/05/17 09:56:30;;;;;;;3.83;0.40;;;10.90;99.90;;;;;;5095065;28;20130;-49
2023/05/17 09:58:58;;;;;;;3.78;0.50;;;10.90;99.90;;;;;;5095023;28;20407;-52
2023/05/17 10:01:28;;;;;;;2.30;0.47;;;10.90;99.90;;;;;;5095018;28;20503;-49
2023/05/17 10:03:55;;;;;;;4.43;0.63;;;10.90;99.90;;;;;;5095082;28;20111;-51
2023/05/17 10:06:22;;;;;;;2.63;0.40;;;10.90;99.90;;;;;;5094975;28;20044;-53
2023/05/17 10:08:54;;;;;;;2.65;0.50;;;10.90;99.90;;;;;;5094843;28;20071;-52
2023/05/17 10:11:46;;;;;;;3.10;0.50;;;10.90;99.90;;;;;;5094739;28;20048;-51
2023/05/17 10:14:14;;;;;;;3.78;0.47;;;11.00;99.90;;;;;;5089967;28;20113;-51
2023/05/17 10:16:41;;;;;;;3.55;0.80;;;11.00;99.90;;;;;;5093805;28;20051;-51
2023/05/17 10:19:09;;;;;;;1.40;0.30;;;11.00;99.90;;;;;;5094589;28;20403;-50
2023/05/17 10:21:35;;;;;;;2.50;0.43;;;10.90;99.90;;;;;;5094536;28;20442;-52
2023/05/17 10:24:02;;;;;;;1.45;0.38;;;11.00;99.90;;;;;;5094632;28;20150;-49
2023/05/17 10:26:29;;;;;;;2.78;0.30;;;11.00;99.90;;;;;;5094524;28;20108;-52
2023/05/17 10:29:01;;;;;;;;;;;11.00;99.90;;;;;;5094945;28;20044;-51
2023/05/17 10:31:32;;;;;;;12.32;1.25;;;11.00;99.90;;;;;;5094393;28;19920;-49
2023/05/17 10:34:00;;;;;;;2.42;0.52;;;11.10;99.90;;;;;;5093949;28;20036;-47
2023/05/17 10:36:26;;;;;;;3.75;0.40;;;11.20;99.90;;;;;;5094432;28;20391;-53
2023/05/17 10:38:52;;;;;;;3.80;0.50;;;11.20;99.90;;;;;;5094068;28;20043;-47
2023/05/17 10:41:22;;;;;;;3.13;0.40;;;11.20;99.90;;;;;;5094328;28;20091;-47
2023/05/17 10:43:48;;;;;;;3.80;0.40;;;11.40;99.90;;;;;;5094227;28;20050;-49
2023/05/17 10:46:16;;;;;;;2.75;0.43;;;11.50;99.90;;;;;;5094240;28;20069;-52
2023/05/17 10:48:43;;;;;;;2.78;0.60;;;11.40;99.90;;;;;;5094223;28;20059;-49
2023/05/17 10:51:10;;;;;;;3.63;0.50;;;11.50;99.90;;;;;;5094142;28;20052;-50
2023/05/17 10:54:04;;;;;;;6.30;0.60;;;11.40;99.90;;;;;;5093841;28;20087;-48
2023/05/17 10:56:31;;;;;;;3.95;0.93;;;11.40;99.90;;;;;;5092943;28;20052;-49
2023/05/17 10:59:20;;;;;;;4.68;0.50;;;11.40;99.90;;;;;;5093946;28;20060;-53
2023/05/17 11:02:04;;;;;;;4.32;0.50;;;11.30;99.90;;;;;;5093959;28;20044;-48
2023/05/17 11:04:41;;;;;;;2.03;0.50;;;11.30;99.90;;;;;;5094361;28;20395;-48
2023/05/17 11:07:15;;;;;;;3.70;0.52;;;11.30;99.90;;;;;;5093992;28;20134;-48
2023/05/17 11:09:45;;;;;;;3.60;0.52;;;11.40;99.90;;;;;;5093758;28;20083;-46
2023/05/17 11:12:12;;;;;;;1.73;0.40;;;11.50;99.90;;;;;;5093873;28;20048;-49
2023/05/17 11:14:44;;;;;;;3.63;1.00;;;11.60;99.90;;;;;;5093670;28;20568;-53
2023/05/17 11:17:42;;;;;;;3.20;0.60;;;11.80;99.90;;;;;;5093811;28;20133;-50
2023/05/17 11:20:27;;;;;;;2.15;0.50;;;12.00;99.90;;;;;;5080754;28;20067;-52
2023/05/17 11:23:04;;;;;;;2.38;0.80;;;12.00;99.90;;;;;;5093688;28;20044;-50
2023/05/17 11:25:31;;;;;;;2.72;0.90;;;12.00;99.90;;;;;;5093845;28;20047;-49
2023/05/17 11:27:58;;;;;;;2.90;0.63;;;12.00;99.90;;;;;;5093448;28;20500;-53
2023/05/17 11:30:29;;;;;;;3.50;0.38;;;11.90;99.90;;;;;;5093654;28;20136;-51
2023/05/17 11:32:59;;;;;;;2.85;0.50;;;11.80;99.90;;;;;;5093764;28;20434;-52
2023/05/17 11:35:43;;;;;;;2.67;0.80;;;11.80;99.90;;;;;;5093311;28;20048;-53
2023/05/17 11:38:25;;;;;;;2.17;0.75;;;11.70;99.90;;;;;;5093637;28;20044;-48
2023/05/17 11:40:53;;;;;;;5.13;0.55;;;11.60;99.90;;;;;;5093507;28;20051;-47
2023/05/17 11:43:24;;;;;;;2.65;0.60;;;11.70;99.90;;;;;;5093373;28;20122;-52
2023/05/17 11:45:54;;;;;;;12.60;0.95;;;11.70;99.90;;;;;;5093277;28;20479;-50
2023/05/17 11:48:21;;;;;;;1.13;0.30;;;11.80;99.90;;;;;;5097623;28;20048;-48
2023/05/17 11:50:48;;;;;;;3.75;0.70;;;11.90;99.90;;;;;;5097642;28;20047;-48
2023/05/17 11:53:16;;;;;;;4.03;0.52;;;12.10;99.90;;;;;;5096317;28;20056;-48
2023/05/17 11:55:47;;;;;;;3.55;0.70;;;12.20;99.90;;;;;;5097355;28;20044;-47
2023/05/17 11:58:16;;;;;;;2.53;0.45;;;12.10;99.90;;;;;;5097229;28;20044;-48
2023/05/17 12:00:42;;;;;;;4.03;0.75;;;12.00;99.90;;;;;;5097430;28;20556;-49
2023/05/17 12:03:18;;;;;;;5.80;0.90;;;11.90;99.90;;;;;;5097145;28;20479;-49
2023/05/17 12:06:04;;;;;;;5.70;0.70;;;11.90;99.90;;;;;;5097340;28;20647;-48
2023/05/17 12:08:33;;;;;;;4.63;0.70;;;11.80;99.90;;;;;;5097248;28;20054;-49
2023/05/17 12:10:58;;;;;;;3.65;0.47;;;11.80;99.90;;;;;;5097247;28;20051;-50
2023/05/17 12:13:28;;;;;;;2.47;0.65;;;11.90;99.90;;;;;;5097077;28;20445;-48
2023/05/17 12:15:56;;;;;;;3.03;0.70;;;11.90;99.90;;;;;;5097205;28;20062;-50
2023/05/17 12:18:23;;;;;;;3.00;0.45;;;11.90;99.90;;;;;;5097179;28;20491;-48
2023/05/17 12:20:52;;;;;;;;;;;11.90;99.90;;;;;;5097518;28;20052;-50
2023/05/17 12:23:25;;;;;;;3.63;0.52;;;11.90;99.90;;;;;;5096795;28;19927;-48
2023/05/17 12:26:00;;;;;;;4.15;0.60;;;11.80;99.90;;;;;;5096050;28;20480;-52
2023/05/17 12:28:26;;;;;;;6.68;0.60;;;11.80;99.90;;;;;;5097029;28;20056;-51
2023/05/17 12:30:53;;;;;;;2.40;0.57;;;11.80;99.90;;;;;;5096774;28;20177;-52
2023/05/17 12:33:19;;;;;;;2.05;0.45;;;12.00;99.90;;;;;;5096866;28;20050;-51
2023/05/17 12:35:45;;;;;;;4.72;0.75;;;12.20;99.90;;;;;;5096528;28;20059;-49
2023/05/17 12:38:11;;;;;;;4.05;0.80;;;12.30;99.90;;;;;;5096792;28;20134;-49
2023/05/17 12:40:39;;;;;;;1.53;0.50;;;12.30;99.90;;;;;;5095603;28;20044;-50
2023/05/17 12:43:05;;;;;;;3.45;1.00;;;12.20;99.90;;;;;;5096553;28;20335;-49
2023/05/17 12:45:31;;;;;;;3.00;0.63;;;12.10;99.90;;;;;;5096435;28;20040;-49
2023/05/17 12:47:59;;;;;;;4.53;0.68;;;12.20;99.90;;;;;;5095615;28;20040;-50
2023/05/17 12:50:31;;;;;;;5.25;0.80;;;12.40;99.90;;;;;;5095276;28;20052;-49
2023/05/17 12:52:57;;;;;;;5.63;0.88;;;12.50;99.90;;;;;;5096423;28;20048;-49
2023/05/17 12:55:23;;;;;;;3.90;0.40;;;12.40;99.90;;;;;;5096278;28;20036;-57